Time;durP1;ratioP1;P1;durP2;ratioP2;P2;SDS_P1;SDS_P2;PMS_P1;PMS_P2;Temp;Humidity;BMP_temperature;BMP_pressure;BME280_temperature;BME280_humidity;BME280_pressure;Samples;Min_cycle;Max_cycle;Signal;HPM_P1;HPM_P2
2024/01/01 00:01:39;;;;;;;8.82;3.97;;;9.90;70.70;;;;;;7757891;22;20018;-75
2024/01/01 00:04:40;;;;;;;12.50;5.85;;;9.80;70.50;;;;;;7811218;22;20054;-75
2024/01/01 00:07:41;;;;;;;12.82;5.93;;;9.80;70.60;;;;;;7757912;22;20063;-75
2024/01/01 00:10:44;;;;;;;13.02;5.63;;;9.70;70.60;;;;;;7782991;22;19995;-75
2024/01/01 00:13:46;;;;;;;18.63;6.13;;;9.70;70.80;;;;;;7757802;22;20011;-76
2024/01/01 00:16:48;;;;;;;15.65;6.53;;;9.60;71.70;;;;;;7810555;22;19999;-74
2024/01/01 00:19:48;;;;;;;12.00;5.18;;;9.60;70.90;;;;;;7756413;22;20031;-76
2024/01/01 00:22:49;;;;;;;15.98;6.63;;;9.60;70.80;;;;;;7757190;22;20011;-76
2024/01/01 00:25:50;;;;;;;15.40;6.88;;;9.50;70.90;;;;;;7782379;22;20011;-76
2024/01/01 00:28:51;;;;;;;11.30;6.30;;;9.50;71.00;;;;;;7809954;22;20099;-76
2024/01/01 00:31:52;;;;;;;13.55;6.93;;;9.40;71.10;;;;;;7782970;22;20056;-75
2024/01/01 00:34:53;;;;;;;15.90;8.35;;;9.40;71.10;;;;;;7756927;22;20007;-75
2024/01/01 00:37:54;;;;;;;15.77;7.30;;;9.30;71.10;;;;;;7781562;22;20034;-74
2024/01/01 00:40:57;;;;;;;17.63;7.15;;;9.30;71.20;;;;;;7781643;22;20003;-76
2024/01/01 00:43:58;;;;;;;15.13;7.68;;;9.20;71.20;;;;;;7782805;22;20015;-76
2024/01/01 00:46:59;;;;;;;23.45;8.68;;;9.20;71.20;;;;;;7782832;22;20003;-75
2024/01/01 00:50:00;;;;;;;16.98;8.25;;;9.10;71.20;;;;;;7756344;22;20269;-76
2024/01/01 00:53:05;;;;;;;18.92;7.97;;;9.00;71.20;;;;;;7782694;22;20065;-75
2024/01/01 00:56:07;;;;;;;16.70;8.30;;;8.90;71.30;;;;;;7782429;22;20441;-75
2024/01/01 00:59:09;;;;;;;20.40;8.85;;;8.80;71.50;;;;;;7782082;22;20003;-76
2024/01/01 01:02:10;;;;;;;13.10;7.32;;;8.80;71.70;;;;;;7782577;22;20133;-74
2024/01/01 01:05:10;;;;;;;17.60;8.65;;;8.70;71.70;;;;;;7782950;22;20113;-76
2024/01/01 01:08:11;;;;;;;19.63;8.63;;;8.70;72.00;;;;;;7810336;22;20014;-75
2024/01/01 01:11:12;;;;;;;19.13;9.10;;;8.60;72.10;;;;;;7782609;22;20000;-76
2024/01/01 01:14:15;;;;;;;26.63;7.50;;;8.60;72.20;;;;;;7809067;22;19999;-76
2024/01/01 01:17:18;;;;;;;15.38;7.53;;;8.60;72.10;;;;;;7757584;22;19996;-76
2024/01/01 01:20:20;;;;;;;23.63;8.25;;;8.60;72.20;;;;;;7781704;22;20445;-75
2024/01/01 01:23:22;;;;;;;18.40;8.27;;;8.60;72.20;;;;;;7782737;22;20023;-74
2024/01/01 01:26:22;;;;;;;18.95;8.32;;;8.60;72.40;;;;;;7782009;22;20397;-76
2024/01/01 01:29:26;;;;;;;23.08;7.88;;;8.60;72.50;;;;;;7809153;22;20000;-76
2024/01/01 01:32:26;;;;;;;15.70;7.00;;;8.60;72.50;;;;;;7756031;22;20031;-76
2024/01/01 01:35:27;;;;;;;17.83;6.80;;;8.70;72.30;;;;;;7780737;22;20301;-76
2024/01/01 01:38:29;;;;;;;22.88;9.48;;;8.70;72.40;;;;;;7809304;22;20091;-75
2024/01/01 01:41:31;;;;;;;18.42;8.65;;;8.70;72.40;;;;;;7781042;22;20030;-75
2024/01/01 01:44:33;;;;;;;18.67;7.47;;;8.70;72.50;;;;;;7782693;22;20086;-76
2024/01/01 01:47:35;;;;;;;17.67;8.00;;;8.60;72.60;;;;;;7782849;22;20076;-76
2024/01/01 01:50:36;;;;;;;13.77;8.23;;;8.60;72.70;;;;;;7781383;22;20050;-75
2024/01/01 01:53:38;;;;;;;17.98;8.40;;;8.70;72.80;;;;;;7756146;22;19999;-75
2024/01/01 01:56:39;;;;;;;19.15;7.53;;;8.70;72.90;;;;;;7756749;22;20445;-76
2024/01/01 01:59:43;;;;;;;15.77;7.63;;;8.70;72.90;;;;;;7781692;22;20000;-75
2024/01/01 02:02:45;;;;;;;21.55;8.73;;;8.80;73.10;;;;;;7781303;22;20034;-76
2024/01/01 02:05:46;;;;;;;17.75;8.45;;;8.90;73.00;;;;;;7783136;22;20070;-76
2024/01/01 02:08:48;;;;;;;16.58;7.72;;;8.90;73.00;;;;;;7780840;22;20278;-75
2024/01/01 02:11:48;;;;;;;17.48;8.35;;;9.00;72.90;;;;;;7783461;22;20094;-75
2024/01/01 02:14:49;;;;;;;18.90;9.25;;;9.10;72.80;;;;;;7758876;22;20458;-76
2024/01/01 02:17:51;;;;;;;21.75;8.88;;;9.10;72.90;;;;;;7812091;22;19999;-75
2024/01/01 02:20:52;;;;;;;22.77;8.40;;;9.20;72.70;;;;;;7783590;22;20007;-75
2024/01/01 02:23:55;;;;;;;22.75;9.75;;;9.20;72.60;;;;;;7812391;22;20039;-75
2024/01/01 02:26:56;;;;;;;16.75;8.70;;;9.30;72.40;;;;;;7759233;22;20003;-76
2024/01/01 02:29:57;;;;;;;21.25;8.70;;;9.30;72.10;;;;;;7759059;22;20010;-76
2024/01/01 02:32:57;;;;;;;18.42;8.38;;;9.20;72.20;;;;;;7785044;22;20003;-76
2024/01/01 02:36:00;;;;;;;19.27;8.95;;;9.20;72.10;;;;;;7784829;22;20124;-75
2024/01/01 02:39:06;;;;;;;15.15;8.30;;;9.20;72.00;;;;;;7812328;22;20064;-75
2024/01/01 02:42:07;;;;;;;22.38;9.60;;;9.10;72.00;;;;;;7812753;22;20007;-74
2024/01/01 02:45:08;;;;;;;17.73;7.75;;;9.10;72.00;;;;;;7784163;22;20049;-75
2024/01/01 02:48:09;;;;;;;17.42;8.05;;;9.00;72.10;;;;;;7811685;22;20051;-75
2024/01/01 02:51:10;;;;;;;16.90;9.93;;;9.00;72.30;;;;;;7757791;22;19999;-76
2024/01/01 02:54:11;;;;;;;20.42;8.65;;;9.00;72.40;;;;;;7784896;22;20192;-76
2024/01/01 02:57:12;;;;;;;18.08;8.60;;;9.10;72.40;;;;;;7783924;22;19999;-75
2024/01/01 03:00:14;;;;;;;20.95;9.13;;;9.10;72.40;;;;;;7783749;22;20003;-76
2024/01/01 03:03:17;;;;;;;20.20;8.63;;;9.10;72.30;;;;;;7783767;22;20011;-75
2024/01/01 03:06:18;;;;;;;21.88;10.20;;;9.20;72.30;;;;;;7757521;22;19999;-75
2024/01/01 03:09:19;;;;;;;19.70;9.43;;;9.20;72.20;;;;;;7811017;22;20025;-76
2024/01/01 03:12:20;;;;;;;25.33;8.88;;;9.30;72.10;;;;;;7758140;22;20392;-76
2024/01/01 03:15:21;;;;;;;18.95;8.98;;;9.30;72.10;;;;;;7758850;22;20030;-76
2024/01/01 03:18:22;;;;;;;30.83;11.90;;;9.30;72.10;;;;;;7757894;22;20484;-75
2024/01/01 03:21:24;;;;;;;28.70;12.63;;;9.30;72.00;;;;;;7757532;22;20082;-75
2024/01/01 03:24:25;;;;;;;29.83;12.75;;;9.30;71.70;;;;;;7812301;22;20029;-75
2024/01/01 03:27:26;;;;;;;32.72;12.10;;;9.30;71.50;;;;;;7784105;22;20010;-74
2024/01/01 03:30:30;;;;;;;25.15;11.25;;;9.20;71.60;;;;;;7812630;22;20360;-76
2024/01/01 03:33:37;;;;;;;38.22;15.05;;;9.30;72.50;;;;;;7758311;22;20452;-75
2024/01/01 03:36:39;;;;;;;28.00;11.73;;;9.20;71.50;;;;;;7785071;22;20011;-76
2024/01/01 03:39:40;;;;;;;23.92;9.77;;;9.20;71.70;;;;;;7781964;22;20015;-76
2024/01/01 03:42:40;;;;;;;18.73;8.88;;;9.20;71.60;;;;;;7758281;22;20011;-76
2024/01/01 03:45:41;;;;;;;21.20;8.32;;;9.20;71.60;;;;;;7781206;22;20007;-76
2024/01/01 03:48:42;;;;;;;17.38;8.20;;;9.20;71.50;;;;;;7757925;22;20036;-76
2024/01/01 03:51:43;;;;;;;14.43;7.75;;;9.20;71.50;;;;;;7731729;22;20078;-75
2024/01/01 03:54:45;;;;;;;20.23;8.63;;;9.20;71.50;;;;;;7783209;22;20727;-75
2024/01/01 03:57:47;;;;;;;15.05;7.50;;;9.20;71.40;;;;;;7758817;22;20099;-76
2024/01/01 04:00:47;;;;;;;14.80;6.82;;;9.20;71.20;;;;;;7783044;22;20349;-78
2024/01/01 04:03:48;;;;;;;20.42;8.18;;;9.20;71.20;;;;;;7810257;22;20017;-75
2024/01/01 04:06:50;;;;;;;11.52;5.72;;;9.20;71.00;;;;;;7782551;22;20387;-75
2024/01/01 04:09:51;;;;;;;9.75;5.03;;;9.10;70.90;;;;;;7782350;22;20111;-76
2024/01/01 04:12:53;;;;;;;12.57;6.50;;;9.00;70.90;;;;;;7783687;22;20470;-75
2024/01/01 04:15:54;;;;;;;10.73;6.25;;;9.00;71.10;;;;;;7757753;22;20011;-76
2024/01/01 04:18:57;;;;;;;12.13;6.43;;;9.00;71.30;;;;;;7731955;22;20018;-75
2024/01/01 04:21:58;;;;;;;11.18;5.47;;;9.10;71.40;;;;;;7811339;22;20573;-75
2024/01/01 04:24:58;;;;;;;10.02;4.70;;;9.00;71.40;;;;;;7783204;22;20056;-75
2024/01/01 04:28:01;;;;;;;10.90;5.68;;;8.90;71.40;;;;;;7757494;22;20009;-77
2024/01/01 04:31:03;;;;;;;12.73;5.45;;;9.00;71.50;;;;;;7782648;22;20458;-75
2024/01/01 04:34:05;;;;;;;11.65;5.88;;;9.00;71.70;;;;;;7782136;22;20083;-75
2024/01/01 04:37:06;;;;;;;10.93;5.03;;;9.00;71.50;;;;;;7810270;22;20476;-73
2024/01/01 04:40:07;;;;;;;9.85;4.45;;;9.00;71.30;;;;;;7756648;22;20093;-76
2024/01/01 04:43:09;;;;;;;10.20;5.10;;;9.10;71.40;;;;;;7782858;22;20429;-76
2024/01/01 04:46:10;;;;;;;12.40;5.72;;;9.10;71.50;;;;;;7758613;22;20535;-76
2024/01/01 04:49:11;;;;;;;14.73;5.95;;;9.10;71.40;;;;;;7782080;22;20086;-75
2024/01/01 04:52:12;;;;;;;16.25;5.72;;;9.10;72.00;;;;;;7731867;22;20003;-76
2024/01/01 04:55:14;;;;;;;14.50;6.85;;;9.20;71.00;;;;;;7810275;22;20424;-76
2024/01/01 04:58:15;;;;;;;11.07;5.47;;;9.10;70.90;;;;;;7756527;22;20026;-74
2024/01/01 05:01:17;;;;;;;11.90;5.30;;;9.10;71.00;;;;;;7810538;22;20002;-75
2024/01/01 05:04:20;;;;;;;10.20;5.00;;;9.10;70.90;;;;;;7781797;22;20015;-76
2024/01/01 05:07:21;;;;;;;12.98;6.28;;;9.10;71.10;;;;;;7782184;22;20002;-75
2024/01/01 05:10:21;;;;;;;10.65;5.38;;;9.10;71.10;;;;;;7780780;22;20032;-75
2024/01/01 05:13:25;;;;;;;11.63;6.30;;;9.10;71.10;;;;;;7758476;22;20438;-77
2024/01/01 05:16:26;;;;;;;14.07;6.45;;;9.10;70.80;;;;;;7782352;22;20086;-75
2024/01/01 05:19:27;;;;;;;13.70;6.82;;;9.10;70.70;;;;;;7756182;22;20010;-76
2024/01/01 05:22:28;;;;;;;15.13;7.15;;;9.10;70.80;;;;;;7781885;22;20015;-75
2024/01/01 05:25:29;;;;;;;15.32;7.57;;;9.10;70.70;;;;;;7781475;22;20003;-76
2024/01/01 05:28:30;;;;;;;16.02;7.05;;;9.10;70.70;;;;;;7808352;22;19999;-75
2024/01/01 05:31:31;;;;;;;11.48;6.50;;;9.10;70.60;;;;;;7808922;22;20508;-76
2024/01/01 05:34:32;;;;;;;18.60;7.78;;;9.00;70.60;;;;;;7781011;22;20144;-75
2024/01/01 05:37:34;;;;;;;15.40;6.95;;;9.00;70.80;;;;;;7781661;22;20060;-75
2024/01/01 05:40:37;;;;;;;10.70;5.57;;;9.00;70.70;;;;;;7781247;22;20031;-76
2024/01/01 05:43:38;;;;;;;14.38;6.63;;;8.90;70.40;;;;;;7809413;22;20082;-76
2024/01/01 05:46:40;;;;;;;14.77;6.55;;;8.80;70.40;;;;;;7781038;22;20331;-77
2024/01/01 05:49:40;;;;;;;13.75;6.78;;;8.80;70.50;;;;;;7755135;22;19999;-75
2024/01/01 05:52:42;;;;;;;10.07;5.55;;;8.70;70.80;;;;;;7781818;22;20026;-74
2024/01/01 05:55:42;;;;;;;11.07;5.80;;;8.70;71.10;;;;;;7781303;22;20039;-76
2024/01/01 05:58:43;;;;;;;11.23;6.43;;;8.70;71.30;;;;;;7755482;22;20304;-76
2024/01/01 06:01:45;;;;;;;12.73;5.75;;;8.70;71.40;;;;;;7781588;22;20007;-77
2024/01/01 06:04:45;;;;;;;14.55;5.78;;;8.70;71.50;;;;;;7781562;22;20021;-76
2024/01/01 06:07:46;;;;;;;13.77;6.78;;;8.70;71.50;;;;;;7809183;22;19991;-76
2024/01/01 06:10:47;;;;;;;10.85;5.43;;;8.70;71.70;;;;;;7756388;22;19999;-75
2024/01/01 06:13:49;;;;;;;9.98;4.55;;;8.70;71.50;;;;;;7809286;22;20088;-76
2024/01/01 06:16:49;;;;;;;9.32;5.47;;;8.60;71.40;;;;;;7781972;22;20006;-76
2024/01/01 06:19:50;;;;;;;12.85;6.53;;;8.60;71.40;;;;;;7781954;22;20641;-76
2024/01/01 06:22:51;;;;;;;13.15;6.00;;;8.60;71.60;;;;;;7781670;22;20011;-76
2024/01/01 06:25:53;;;;;;;12.18;5.35;;;8.60;71.30;;;;;;7781798;22;19998;-76
2024/01/01 06:28:53;;;;;;;15.98;7.05;;;8.50;71.00;;;;;;7781690;22;20048;-75
2024/01/01 06:31:54;;;;;;;16.70;6.00;;;8.40;71.00;;;;;;7781145;22;20032;-76
2024/01/01 06:34:55;;;;;;;14.98;7.47;;;8.40;71.20;;;;;;7780459;22;20071;-74
2024/01/01 06:37:56;;;;;;;10.63;5.57;;;8.40;71.40;;;;;;7780638;22;20011;-75
2024/01/01 06:40:58;;;;;;;16.20;6.68;;;8.40;71.50;;;;;;7808471;22;20003;-75
2024/01/01 06:43:59;;;;;;;9.35;4.70;;;8.40;71.30;;;;;;7782006;22;20019;-74
2024/01/01 06:47:03;;;;;;;12.05;5.15;;;8.40;71.30;;;;;;7755885;22;20088;-76
2024/01/01 06:50:04;;;;;;;17.70;6.78;;;8.40;71.30;;;;;;7782291;22;20007;-75
2024/01/01 06:53:05;;;;;;;12.38;5.88;;;8.30;71.00;;;;;;7781008;22;20076;-75
2024/01/01 06:56:07;;;;;;;15.85;6.30;;;8.30;71.00;;;;;;7781203;22;20703;-76
2024/01/01 06:59:11;;;;;;;11.75;6.18;;;8.30;71.20;;;;;;7782003;22;20048;-76
2024/01/01 07:02:12;;;;;;;13.48;6.10;;;8.20;71.20;;;;;;7783693;22;20076;-75
2024/01/01 07:05:13;;;;;;;13.75;6.25;;;8.20;71.10;;;;;;7783775;22;20026;-76
2024/01/01 07:08:14;;;;;;;13.40;6.70;;;8.20;71.20;;;;;;7757866;22;20132;-75
2024/01/01 07:11:15;;;;;;;11.52;4.82;;;8.10;71.10;;;;;;7811485;22;20023;-76
2024/01/01 07:14:16;;;;;;;14.55;6.57;;;8.10;71.30;;;;;;7783562;22;19999;-75
2024/01/01 07:17:19;;;;;;;11.30;5.43;;;8.10;71.60;;;;;;7784106;22;20035;-75
2024/01/01 07:20:19;;;;;;;11.75;4.65;;;8.10;71.70;;;;;;7782939;22;20011;-76
2024/01/01 07:23:20;;;;;;;10.57;5.15;;;8.10;72.00;;;;;;7783002;22;20750;-75
2024/01/01 07:26:22;;;;;;;10.88;5.22;;;8.10;72.00;;;;;;7758065;22;20004;-76
2024/01/01 07:29:27;;;;;;;13.30;6.05;;;8.20;71.90;;;;;;7784191;22;20018;-76
2024/01/01 07:32:31;;;;;;;18.27;7.63;;;8.30;72.00;;;;;;7783355;22;20045;-75
2024/01/01 07:35:32;;;;;;;10.40;6.03;;;8.30;71.90;;;;;;7783064;22;20059;-75
2024/01/01 07:38:33;;;;;;;14.75;5.53;;;8.40;72.00;;;;;;7757636;22;20007;-76
2024/01/01 07:41:35;;;;;;;14.73;6.00;;;8.40;72.20;;;;;;7782791;22;20052;-76
2024/01/01 07:44:35;;;;;;;10.95;4.93;;;8.50;71.80;;;;;;7758130;22;20585;-73
2024/01/01 07:47:36;;;;;;;13.02;5.90;;;8.60;71.70;;;;;;7757785;22;20630;-76
2024/01/01 07:50:46;;;;;;;14.68;5.53;;;8.60;71.50;;;;;;7784146;22;20033;-76
2024/01/01 07:53:51;;;;;;;12.73;6.20;;;8.70;71.50;;;;;;7810168;22;20102;-75
2024/01/01 07:56:51;;;;;;;12.90;5.38;;;8.80;71.40;;;;;;7756576;22;20014;-75
2024/01/01 07:59:55;;;;;;;13.77;6.55;;;8.80;71.30;;;;;;7782245;22;20003;-76
2024/01/01 08:02:56;;;;;;;19.75;8.35;;;8.80;71.10;;;;;;7782017;22;20068;-74
2024/01/01 08:05:58;;;;;;;19.85;7.88;;;8.80;71.00;;;;;;7782758;22;20139;-76
2024/01/01 08:08:59;;;;;;;14.43;6.10;;;8.90;71.00;;;;;;7782382;22;20116;-75
2024/01/01 08:12:00;;;;;;;18.48;7.30;;;8.90;70.70;;;;;;7756353;22;20013;-76
2024/01/01 08:15:01;;;;;;;14.38;5.97;;;8.90;70.60;;;;;;7756242;22;19999;-75
2024/01/01 08:18:03;;;;;;;18.55;6.53;;;8.90;70.70;;;;;;7756749;22;20298;-76
2024/01/01 08:21:05;;;;;;;15.75;5.15;;;8.90;70.60;;;;;;7781843;22;20000;-75
2024/01/01 08:24:06;;;;;;;16.58;6.07;;;8.90;70.70;;;;;;7782429;22;20325;-76
2024/01/01 08:27:09;;;;;;;15.15;6.47;;;8.90;70.70;;;;;;7782689;22;20389;-75
2024/01/01 08:30:10;;;;;;;10.48;4.28;;;9.00;70.90;;;;;;7781996;22;20011;-76
2024/01/01 08:33:13;;;;;;;13.48;5.43;;;9.10;70.70;;;;;;7782162;22;20000;-74
2024/01/01 08:36:15;;;;;;;15.25;6.32;;;9.10;70.40;;;;;;7809792;22;20050;-75
2024/01/01 08:39:16;;;;;;;26.02;7.82;;;9.20;70.00;;;;;;7756236;22;20007;-75
2024/01/01 08:42:16;;;;;;;18.70;6.78;;;9.20;70.00;;;;;;7782285;22;20011;-77
2024/01/01 08:45:22;;;;;;;21.05;6.38;;;9.30;70.10;;;;;;7781958;22;20018;-77
2024/01/01 08:48:25;;;;;;;16.40;6.78;;;9.30;70.00;;;;;;7810319;22;20427;-75
2024/01/01 08:51:27;;;;;;;16.02;6.53;;;9.40;69.80;;;;;;7810292;22;20021;-75
2024/01/01 08:54:28;;;;;;;24.13;8.05;;;9.40;69.80;;;;;;7810409;22;20478;-75
2024/01/01 08:57:28;;;;;;;17.85;6.78;;;9.60;69.70;;;;;;7730976;22;20650;-75
2024/01/01 09:00:29;;;;;;;24.10;7.03;;;9.70;69.60;;;;;;7782171;22;19995;-75
2024/01/01 09:03:30;;;;;;;20.60;7.88;;;9.80;69.40;;;;;;7756523;22;20301;-74
2024/01/01 09:06:31;;;;;;;14.88;6.28;;;9.90;69.20;;;;;;7756124;22;20007;-75
2024/01/01 09:09:32;;;;;;;16.40;6.88;;;10.00;69.10;;;;;;7756233;22;20057;-76
2024/01/01 09:12:33;;;;;;;18.75;6.28;;;10.00;69.10;;;;;;7756307;22;20127;-76
2024/01/01 09:15:34;;;;;;;18.88;7.05;;;10.10;69.00;;;;;;7756208;22;20003;-76
2024/01/01 09:18:35;;;;;;;16.58;5.40;;;10.20;68.90;;;;;;7808989;22;20515;-76
2024/01/01 09:21:36;;;;;;;15.50;6.22;;;10.30;68.70;;;;;;7809688;22;20000;-75
2024/01/01 09:24:37;;;;;;;20.08;7.30;;;10.40;68.40;;;;;;7782409;22;19999;-74
2024/01/01 09:27:39;;;;;;;17.67;7.07;;;10.40;68.10;;;;;;7782840;22;20003;-76
2024/01/01 09:30:40;;;;;;;16.00;6.05;;;10.40;68.10;;;;;;7782128;22;20499;-76
2024/01/01 09:33:42;;;;;;;22.00;7.05;;;10.50;68.10;;;;;;7781637;22;20022;-74
2024/01/01 09:36:46;;;;;;;15.77;6.15;;;10.50;68.10;;;;;;7756177;22;20007;-76
2024/01/01 09:39:46;;;;;;;16.92;6.32;;;10.60;68.00;;;;;;7782028;22;20053;-75
2024/01/01 09:42:48;;;;;;;21.10;6.97;;;10.70;67.80;;;;;;7781880;22;20071;-75
2024/01/01 09:45:49;;;;;;;13.43;5.57;;;10.70;67.40;;;;;;7809809;22;20005;-76
2024/01/01 09:48:50;;;;;;;15.65;5.93;;;10.80;67.40;;;;;;7781896;22;20051;-74
2024/01/01 09:51:51;;;;;;;17.30;5.80;;;10.90;67.20;;;;;;7809084;22;20041;-76
2024/01/01 09:54:52;;;;;;;15.55;5.65;;;11.00;67.20;;;;;;7757004;22;20007;-76
2024/01/01 09:57:54;;;;;;;12.38;4.88;;;11.10;66.90;;;;;;7781684;22;20052;-73
2024/01/01 10:01:12;;;;;;;15.23;6.38;;;11.20;66.90;;;;;;7782317;22;19995;-76
2024/01/01 10:04:21;;;;;;;13.05;5.63;;;11.30;66.80;;;;;;7809489;22;20051;-75
2024/01/01 10:07:26;;;;;;;8.40;4.35;;;11.40;66.50;;;;;;7781711;22;20398;-76
2024/01/01 10:10:27;;;;;;;15.35;5.07;;;11.50;66.00;;;;;;7780851;22;20121;-76
2024/01/01 10:13:28;;;;;;;13.70;5.95;;;11.70;65.40;;;;;;7757325;22;20862;-75
2024/01/01 10:16:30;;;;;;;15.18;5.72;;;11.80;64.80;;;;;;7756250;22;20307;-76
2024/01/01 10:19:49;;;;;;;12.20;5.13;;;11.90;65.20;;;;;;7756043;22;20007;-77
2024/01/01 10:22:50;;;;;;;;;;;12.00;63.90;;;;;;7782654;22;20222;-76
2024/01/01 10:26:06;;;;;;;8.23;4.05;;;12.00;63.60;;;;;;7809890;22;20014;-76
2024/01/01 10:29:12;;;;;;;14.18;4.70;;;12.20;63.30;;;;;;7809749;22;19995;-77
2024/01/01 10:32:27;;;;;;;6.38;3.03;;;12.30;63.10;;;;;;7758473;22;20030;-76
2024/01/01 10:35:53;;;;;;;;;;;12.30;62.70;;;;;;7790499;22;20011;-75
2024/01/01 10:38:56;;;;;;;7.72;2.67;;;12.40;62.30;;;;;;7784045;22;20489;-76
2024/01/01 10:41:57;;;;;;;7.13;2.80;;;12.40;62.00;;;;;;7812142;22;20011;-76
2024/01/01 10:44:58;;;;;;;9.75;2.92;;;12.50;61.60;;;;;;7759149;22;20061;-78
2024/01/01 10:48:00;;;;;;;8.15;3.72;;;12.50;61.00;;;;;;7783931;22;20011;-76
2024/01/01 10:51:29;;;;;;;6.43;2.78;;;12.50;60.70;;;;;;7811849;22;20006;-76
2024/01/01 10:55:02;;;;;;;7.10;2.72;;;12.50;60.30;;;;;;7758225;22;20068;-77
2024/01/01 10:58:23;;;;;;;6.22;2.80;;;12.70;60.60;;;;;;7757888;22;20043;-77
2024/01/01 11:01:26;;;;;;;5.47;2.72;;;12.80;59.60;;;;;;7785361;22;20045;-76
2024/01/01 11:04:29;;;;;;;7.15;3.40;;;13.00;59.50;;;;;;7784021;22;20436;-75
2024/01/01 11:07:52;;;;;;;7.20;2.95;;;13.20;59.20;;;;;;7758775;22;20692;-77
2024/01/01 11:10:54;;;;;;;12.02;5.47;;;13.60;58.50;;;;;;7784980;22;19999;-77
2024/01/01 11:13:56;;;;;;;7.28;3.30;;;14.00;57.50;;;;;;7812584;22;20014;-76
2024/01/01 11:17:00;;;;;;;19.13;5.75;;;14.40;56.50;;;;;;7784208;22;20007;-76
2024/01/01 11:20:06;;;;;;;13.00;5.10;;;15.00;55.30;;;;;;7783755;22;20013;-77
2024/01/01 11:23:07;;;;;;;27.40;10.18;;;15.50;54.40;;;;;;7813621;22;20106;-76
2024/01/01 11:26:23;;;;;;;8.88;4.38;;;16.30;53.50;;;;;;7757872;22;20031;-75
2024/01/01 11:29:24;;;;;;;6.35;3.25;;;17.00;52.20;;;;;;7810863;22;20002;-76
2024/01/01 11:32:24;;;;;;;11.35;3.78;;;17.60;50.60;;;;;;7783339;22;20026;-75
2024/01/01 11:35:26;;;;;;;8.43;3.97;;;17.90;48.50;;;;;;7783223;22;20039;-76
2024/01/01 11:38:27;;;;;;;5.03;2.47;;;18.10;47.40;;;;;;7810604;22;20007;-76
2024/01/01 11:41:31;;;;;;;7.60;3.53;;;18.20;47.90;;;;;;7811068;22;20006;-77
2024/01/01 11:44:32;;;;;;;6.63;3.67;;;18.30;46.90;;;;;;7783477;22;20279;-77
2024/01/01 11:47:33;;;;;;;18.77;4.93;;;18.00;47.30;;;;;;7783459;22;19999;-76
2024/01/01 11:50:34;;;;;;;13.68;5.13;;;17.60;48.30;;;;;;7757292;22;20086;-77
2024/01/01 11:53:36;;;;;;;6.10;3.13;;;17.20;49.10;;;;;;7811357;22;20098;-75
2024/01/01 11:56:39;;;;;;;12.40;4.28;;;16.80;49.50;;;;;;7784490;22;20010;-76
2024/01/01 11:59:40;;;;;;;7.68;3.10;;;16.40;50.10;;;;;;7810526;22;19999;-74
2024/01/01 12:02:42;;;;;;;6.07;2.58;;;16.10;50.50;;;;;;7783622;22;20694;-78
2024/01/01 12:05:44;;;;;;;9.48;3.97;;;15.90;51.20;;;;;;7757355;22;20052;-77
2024/01/01 12:08:45;;;;;;;6.40;3.13;;;15.70;51.40;;;;;;7811077;22;20023;-75
2024/01/01 12:11:47;;;;;;;7.57;3.03;;;15.40;52.40;;;;;;7782010;22;20023;-77
2024/01/01 12:14:49;;;;;;;5.97;2.30;;;15.20;52.10;;;;;;7783827;22;20103;-75
2024/01/01 12:17:52;;;;;;;3.50;1.75;;;15.00;52.60;;;;;;7783286;22;20003;-76
2024/01/01 12:20:58;;;;;;;3.38;1.65;;;14.90;53.10;;;;;;7782634;22;19991;-76
2024/01/01 12:24:12;;;;;;;3.38;2.15;;;14.80;53.40;;;;;;7784714;22;20490;-77
2024/01/01 12:27:14;;;;;;;9.93;2.55;;;14.70;53.50;;;;;;7777133;22;20386;-76
2024/01/01 12:30:30;;;;;;;2.83;1.48;;;14.60;53.50;;;;;;7782186;22;20413;-75
2024/01/01 12:33:32;;;;;;;3.17;1.80;;;14.40;53.40;;;;;;7782271;22;20076;-76
2024/01/01 12:36:33;;;;;;;10.18;3.30;;;14.20;53.30;;;;;;7782905;22;20027;-77
2024/01/01 12:39:34;;;;;;;9.95;2.92;;;14.10;53.90;;;;;;7757017;22;20096;-75
2024/01/01 12:42:36;;;;;;;9.98;2.95;;;14.00;54.10;;;;;;7782611;22;20030;-76
2024/01/01 12:45:37;;;;;;;13.93;3.38;;;13.90;54.30;;;;;;7810693;22;20099;-75
2024/01/01 12:48:42;;;;;;;13.95;3.50;;;13.90;54.60;;;;;;7782791;22;20499;-77
2024/01/01 12:51:45;;;;;;;8.90;3.20;;;13.80;54.70;;;;;;7782876;22;20004;-76
2024/01/01 12:54:47;;;;;;;20.27;7.05;;;13.70;54.80;;;;;;7783167;22;20025;-76
2024/01/01 12:57:48;;;;;;;6.97;2.75;;;13.70;55.10;;;;;;7783980;22;19996;-77
2024/01/01 13:00:49;;;;;;;8.45;3.70;;;13.60;55.20;;;;;;7811646;22;20018;-76
2024/01/01 13:03:50;;;;;;;12.15;4.18;;;13.50;55.10;;;;;;7731896;22;20007;-76
2024/01/01 13:06:51;;;;;;;7.35;3.08;;;13.40;55.30;;;;;;7810758;22;19999;-76
2024/01/01 13:09:52;;;;;;;3.90;1.88;;;13.40;55.60;;;;;;7757151;22;20003;-77
2024/01/01 13:12:55;;;;;;;3.05;1.58;;;13.40;55.50;;;;;;7759166;22;20038;-76
2024/01/01 13:15:56;;;;;;;4.22;1.48;;;13.30;55.10;;;;;;7759550;22;20003;-76
2024/01/01 13:18:57;;;;;;;3.20;2.05;;;13.30;55.00;;;;;;7757502;22;20488;-77
2024/01/01 13:22:01;;;;;;;4.28;2.45;;;13.20;55.10;;;;;;7781650;22;20007;-76
2024/01/01 13:25:04;;;;;;;8.65;2.85;;;13.10;55.20;;;;;;7782954;22;20159;-76
2024/01/01 13:28:06;;;;;;;3.15;1.40;;;13.10;55.30;;;;;;7782102;22;20310;-75
2024/01/01 13:31:08;;;;;;;0.88;0.80;;;13.10;55.30;;;;;;7781763;22;20003;-77
2024/01/01 13:34:09;;;;;;;2.45;1.35;;;13.10;54.70;;;;;;7782716;22;20011;-77
2024/01/01 13:37:10;;;;;;;6.57;1.40;;;13.10;54.80;;;;;;7783007;22;20018;-75
2024/01/01 13:40:11;;;;;;;2.30;1.30;;;13.00;55.00;;;;;;7731382;22;20586;-76
2024/01/01 13:43:13;;;;;;;2.15;1.25;;;13.00;54.90;;;;;;7781510;22;20018;-77
2024/01/01 13:46:14;;;;;;;4.38;1.35;;;13.00;54.40;;;;;;7782300;22;20003;-76
2024/01/01 13:49:17;;;;;;;3.67;2.20;;;12.90;54.60;;;;;;7783043;22;19999;-76
2024/01/01 13:52:17;;;;;;;3.47;1.20;;;12.90;54.80;;;;;;7810508;22;20053;-76
2024/01/01 13:55:20;;;;;;;2.70;1.65;;;12.80;54.80;;;;;;7782137;22;20049;-76
2024/01/01 13:58:21;;;;;;;3.50;1.23;;;12.90;54.90;;;;;;7758452;22;20014;-77
2024/01/01 14:01:23;;;;;;;5.22;2.25;;;12.90;55.00;;;;;;7810954;22;19999;-77
2024/01/01 14:04:25;;;;;;;4.60;1.30;;;12.80;55.00;;;;;;7810849;22;20102;-77
2024/01/01 14:07:29;;;;;;;2.60;1.45;;;12.80;55.00;;;;;;7758757;22;19999;-77
2024/01/01 14:10:31;;;;;;;3.63;1.65;;;12.90;55.30;;;;;;7784702;22;20007;-76
2024/01/01 14:13:33;;;;;;;2.97;1.63;;;12.80;55.40;;;;;;7784253;22;20008;-75
2024/01/01 14:16:34;;;;;;;4.90;2.05;;;12.90;55.70;;;;;;7784387;22;20003;-77
2024/01/01 14:19:35;;;;;;;2.58;1.65;;;12.90;55.90;;;;;;7783850;22;20353;-76
2024/01/01 14:22:36;;;;;;;3.28;1.30;;;12.80;56.10;;;;;;7758782;22;20110;-75
2024/01/01 14:25:38;;;;;;;10.60;2.33;;;12.80;56.20;;;;;;7783995;22;19999;-77
2024/01/01 14:28:39;;;;;;;4.18;1.70;;;12.80;56.40;;;;;;7784002;22;20103;-74
2024/01/01 14:31:40;;;;;;;4.43;1.90;;;12.70;56.50;;;;;;7757291;22;20274;-75
2024/01/01 14:34:41;;;;;;;3.60;1.83;;;12.70;56.70;;;;;;7758274;22;20011;-76
2024/01/01 14:37:42;;;;;;;9.20;2.28;;;12.60;56.80;;;;;;7783376;22;20394;-76
2024/01/01 14:40:42;;;;;;;7.10;2.58;;;12.60;57.10;;;;;;7809716;22;20554;-75
2024/01/01 14:43:45;;;;;;;5.32;2.63;;;12.60;57.20;;;;;;7784086;22;20011;-74
2024/01/01 14:46:48;;;;;;;5.63;1.98;;;12.60;57.30;;;;;;7783979;22;20064;-76
2024/01/01 14:49:49;;;;;;;2.60;1.73;;;12.50;57.30;;;;;;7757854;22;20010;-76
2024/01/01 14:52:50;;;;;;;3.45;1.70;;;12.50;57.40;;;;;;7758356;22;20007;-75
2024/01/01 14:55:51;;;;;;;7.20;2.03;;;12.60;57.50;;;;;;7784295;22;20003;-76
2024/01/01 14:58:52;;;;;;;10.45;2.47;;;12.60;57.40;;;;;;7784037;22;19999;-75
2024/01/01 15:01:58;;;;;;;4.13;1.90;;;12.60;57.30;;;;;;7812282;22;20437;-76
2024/01/01 15:04:59;;;;;;;3.08;1.45;;;12.60;56.90;;;;;;7813320;22;20000;-77
2024/01/01 15:08:01;;;;;;;9.43;1.92;;;12.50;56.50;;;;;;7733481;22;20034;-76
2024/01/01 15:11:02;;;;;;;2.47;1.23;;;12.50;56.30;;;;;;7785422;22;20009;-76
2024/01/01 15:14:03;;;;;;;6.68;2.75;;;12.50;56.40;;;;;;7784745;22;20010;-76
2024/01/01 15:17:05;;;;;;;5.13;2.40;;;12.50;56.40;;;;;;7757474;22;20007;-76
2024/01/01 15:20:09;;;;;;;8.13;3.40;;;12.50;56.40;;;;;;7783855;22;20336;-75
2024/01/01 15:23:11;;;;;;;4.32;1.85;;;12.50;56.50;;;;;;7758496;22;20113;-74
2024/01/01 15:26:12;;;;;;;4.63;2.47;;;12.50;56.60;;;;;;7783552;22;20026;-76
2024/01/01 15:29:13;;;;;;;2.58;1.60;;;12.50;56.70;;;;;;7783801;22;20100;-76
2024/01/01 15:32:14;;;;;;;5.57;2.40;;;12.50;56.80;;;;;;7783204;22;20042;-76
2024/01/01 15:35:15;;;;;;;5.07;2.20;;;12.50;56.90;;;;;;7757944;22;20038;-77
2024/01/01 15:38:17;;;;;;;3.33;2.03;;;12.50;57.10;;;;;;7810864;22;20018;-76
2024/01/01 15:41:18;;;;;;;4.50;1.88;;;12.50;57.10;;;;;;7780402;22;20014;-75
2024/01/01 15:44:20;;;;;;;4.07;1.55;;;12.50;57.30;;;;;;7758518;22;20443;-75
2024/01/01 15:47:21;;;;;;;3.13;2.10;;;12.50;57.40;;;;;;7783689;22;20007;-76